Time;durP1;ratioP1;P1;durP2;ratioP2;P2;SDS_P1;SDS_P2;PMS_P1;PMS_P2;Temp;Humidity;BMP_temperature;BMP_pressure;BME280_temperature;BME280_humidity;BME280_pressure;Samples;Min_cycle;Max_cycle;Signal;HPM_P1;HPM_P2
2022/02/27 00:00:48;;;;;;;18.30;5.38;;;2.60;76.70;;;;;;9181054;19;20050;-67
2022/02/27 00:03:54;;;;;;;27.92;5.90;;;2.60;76.70;;;;;;9183329;19;20033;-62
2022/02/27 00:06:59;;;;;;;12.65;5.32;;;2.50;76.70;;;;;;9182355;19;20372;-62
2022/02/27 00:10:08;;;;;;;14.18;5.50;;;2.50;76.80;;;;;;9181473;19;20022;-61
2022/02/27 00:13:13;;;;;;;20.45;6.32;;;2.50;76.70;;;;;;9180730;19;20051;-60
2022/02/27 00:16:18;;;;;;;16.65;5.70;;;2.50;76.80;;;;;;9178645;19;20018;-62
2022/02/27 00:19:24;;;;;;;17.88;5.50;;;2.50;76.80;;;;;;9180410;19;20093;-61
2022/02/27 00:22:29;;;;;;;21.63;5.88;;;2.40;76.80;;;;;;9182031;19;20022;-64
2022/02/27 00:25:36;;;;;;;23.92;5.93;;;2.40;76.80;;;;;;9183059;19;20014;-60
2022/02/27 00:28:42;;;;;;;19.65;5.57;;;2.40;76.80;;;;;;9180625;19;20022;-60
2022/02/27 00:31:47;;;;;;;10.40;4.68;;;2.40;76.80;;;;;;9179818;19;20033;-61
2022/02/27 00:34:55;;;;;;;32.58;5.38;;;2.40;76.90;;;;;;9180072;19;20110;-62
2022/02/27 00:38:02;;;;;;;20.23;5.25;;;2.40;76.90;;;;;;9180484;19;20014;-60
2022/02/27 00:41:10;;;;;;;24.30;5.45;;;2.30;77.00;;;;;;9178636;19;20018;-61
2022/02/27 00:44:16;;;;;;;18.55;5.43;;;2.30;77.00;;;;;;9181382;19;20114;-61
2022/02/27 00:47:21;;;;;;;17.88;5.25;;;2.40;77.00;;;;;;9181621;19;20468;-60
2022/02/27 00:50:27;;;;;;;21.48;5.35;;;2.30;77.00;;;;;;9182350;19;20026;-62
2022/02/27 00:53:34;;;;;;;16.52;5.50;;;2.30;77.00;;;;;;9180152;19;20025;-61
2022/02/27 00:56:42;;;;;;;19.75;5.18;;;2.30;77.10;;;;;;9180518;19;20480;-60
2022/02/27 00:59:49;;;;;;;14.90;5.13;;;2.30;77.10;;;;;;9179480;19;20015;-63
2022/02/27 01:02:55;;;;;;;23.27;6.75;;;2.30;77.00;;;;;;9181543;19;20023;-62
2022/02/27 01:06:04;;;;;;;23.85;6.35;;;2.30;77.10;;;;;;9179057;19;20021;-62
2022/02/27 01:09:09;;;;;;;16.73;5.35;;;2.30;77.10;;;;;;9182063;19;20014;-61
2022/02/27 01:12:16;;;;;;;17.75;5.63;;;2.30;77.10;;;;;;9183085;19;20366;-63
2022/02/27 01:15:23;;;;;;;25.17;6.57;;;2.30;77.10;;;;;;9180020;19;20015;-61
2022/02/27 01:18:28;;;;;;;17.30;5.93;;;2.30;77.10;;;;;;9178970;19;20022;-62
2022/02/27 01:21:34;;;;;;;14.10;5.55;;;2.30;77.10;;;;;;9177571;19;20494;-62
2022/02/27 01:24:39;;;;;;;27.92;6.38;;;2.20;77.00;;;;;;9180881;19;20726;-60
2022/02/27 01:27:46;;;;;;;25.35;5.60;;;2.30;77.10;;;;;;9176052;19;20018;-61
2022/02/27 01:30:51;;;;;;;23.23;5.88;;;2.30;77.20;;;;;;9182007;19;20014;-63
2022/02/27 01:33:56;;;;;;;20.90;5.28;;;2.20;77.10;;;;;;9181150;19;20097;-62
2022/02/27 01:37:02;;;;;;;19.25;6.32;;;2.20;77.20;;;;;;9179391;19;20022;-61
2022/02/27 01:40:08;;;;;;;14.23;5.25;;;2.20;77.20;;;;;;9178017;19;20045;-62
2022/02/27 01:43:17;;;;;;;17.80;6.05;;;2.20;77.30;;;;;;9178380;19;20413;-62
2022/02/27 01:46:22;;;;;;;19.00;5.10;;;2.20;77.30;;;;;;9177563;19;20030;-62
2022/02/27 01:49:28;;;;;;;20.77;5.20;;;2.20;77.30;;;;;;9178851;19;20024;-61
2022/02/27 01:52:37;;;;;;;14.63;5.28;;;2.20;77.30;;;;;;9178611;19;20025;-61
2022/02/27 01:55:45;;;;;;;17.40;5.80;;;2.20;77.40;;;;;;9178724;19;20018;-61
2022/02/27 01:58:53;;;;;;;18.65;5.03;;;2.20;77.40;;;;;;9176637;19;20023;-62
2022/02/27 02:01:58;;;;;;;18.92;5.65;;;2.20;77.40;;;;;;9174016;19;20472;-62
2022/02/27 02:05:03;;;;;;;19.60;5.18;;;2.20;77.40;;;;;;9175669;19;20011;-62
2022/02/27 02:08:08;;;;;;;24.92;5.57;;;2.20;77.40;;;;;;9180251;19;20036;-61
2022/02/27 02:11:15;;;;;;;30.10;6.22;;;2.20;77.30;;;;;;9178162;19;20042;-61
2022/02/27 02:14:22;;;;;;;21.40;6.07;;;2.20;77.30;;;;;;9180951;19;20042;-61
2022/02/27 02:17:32;;;;;;;22.58;5.30;;;2.20;77.30;;;;;;9175861;19;20099;-60
2022/02/27 02:20:40;;;;;;;22.13;5.95;;;2.20;77.30;;;;;;9175968;19;20058;-64
2022/02/27 02:23:45;;;;;;;19.05;5.60;;;2.20;77.40;;;;;;9178641;19;20018;-59
2022/02/27 02:26:54;;;;;;;23.20;6.22;;;2.20;77.40;;;;;;9177385;19;20014;-61
2022/02/27 02:29:59;;;;;;;16.20;4.85;;;2.20;77.40;;;;;;9174477;19;20126;-61
2022/02/27 02:33:04;;;;;;;13.27;4.85;;;2.20;77.40;;;;;;9179112;19;20018;-60
2022/02/27 02:36:12;;;;;;;13.95;5.03;;;2.20;77.50;;;;;;9176087;19;20018;-62
2022/02/27 02:39:19;;;;;;;22.67;5.43;;;2.20;77.50;;;;;;9175220;19;20018;-63
2022/02/27 02:42:25;;;;;;;14.25;4.55;;;2.20;77.50;;;;;;9176314;19;20022;-62
2022/02/27 02:45:32;;;;;;;25.33;6.20;;;2.10;77.50;;;;;;9175902;19;20035;-61
2022/02/27 02:48:37;;;;;;;16.50;5.43;;;2.20;77.50;;;;;;9178744;19;20022;-62
2022/02/27 02:52:02;;;;;;;22.55;5.45;;;2.20;77.60;;;;;;9178114;19;20015;-60
2022/02/27 02:55:10;;;;;;;20.65;5.47;;;2.20;77.60;;;;;;9175307;19;20015;-61
2022/02/27 02:58:15;;;;;;;22.70;5.25;;;2.20;77.60;;;;;;9176411;19;20014;-61
2022/02/27 03:01:22;;;;;;;16.00;4.63;;;2.20;77.60;;;;;;9175300;19;20472;-61
2022/02/27 03:04:29;;;;;;;22.15;4.93;;;2.20;77.70;;;;;;9175660;19;20052;-61
2022/02/27 03:07:37;;;;;;;19.92;6.05;;;2.20;77.60;;;;;;9177820;19;20018;-61
2022/02/27 03:10:41;;;;;;;17.77;5.13;;;2.20;77.70;;;;;;9176724;19;20025;-61
2022/02/27 03:13:47;;;;;;;19.95;6.95;;;2.10;77.70;;;;;;9174658;19;20357;-60
2022/02/27 03:16:52;;;;;;;23.88;6.40;;;2.20;77.70;;;;;;9182360;19;20011;-61
2022/02/27 03:19:57;;;;;;;17.67;5.55;;;2.20;77.60;;;;;;9183053;19;20611;-62
2022/02/27 03:23:04;;;;;;;20.00;5.22;;;2.20;78.30;;;;;;9183970;19;20034;-61
2022/02/27 03:26:09;;;;;;;18.60;5.85;;;2.20;77.70;;;;;;9183142;19;20015;-61
2022/02/27 03:29:14;;;;;;;21.73;5.10;;;2.20;77.70;;;;;;9180445;19;20022;-61
2022/02/27 03:32:19;;;;;;;16.95;6.07;;;2.10;77.60;;;;;;9185260;19;20019;-60
2022/02/27 03:35:25;;;;;;;23.60;6.30;;;2.20;77.70;;;;;;9181290;19;20014;-64
2022/02/27 03:38:32;;;;;;;19.38;5.07;;;2.20;77.70;;;;;;9183086;19;20043;-61
2022/02/27 03:41:37;;;;;;;14.27;5.47;;;2.20;77.70;;;;;;9182092;19;20038;-61
2022/02/27 03:44:42;;;;;;;18.83;5.30;;;2.20;77.80;;;;;;9183762;19;20102;-62
2022/02/27 03:47:48;;;;;;;20.67;5.90;;;2.20;77.70;;;;;;9183461;19;20048;-62
2022/02/27 03:50:53;;;;;;;21.73;6.03;;;2.30;77.80;;;;;;9185231;19;20025;-62
2022/02/27 03:54:00;;;;;;;25.88;5.63;;;2.20;77.70;;;;;;9184812;19;20029;-60
2022/02/27 03:57:06;;;;;;;24.63;6.00;;;2.20;77.80;;;;;;9182523;19;20029;-60
2022/02/27 04:00:14;;;;;;;20.80;5.45;;;2.20;77.80;;;;;;9182829;19;20022;-62
2022/02/27 04:03:19;;;;;;;29.73;5.72;;;2.20;77.80;;;;;;9181509;19;20018;-60
2022/02/27 04:06:24;;;;;;;25.25;5.35;;;2.20;77.80;;;;;;9182001;19;20015;-64
2022/02/27 04:09:32;;;;;;;21.58;5.95;;;2.20;77.80;;;;;;9182479;19;20371;-61
2022/02/27 04:12:37;;;;;;;13.57;5.03;;;2.20;77.80;;;;;;9185575;19;20022;-61
2022/02/27 04:15:42;;;;;;;20.23;5.75;;;2.20;77.80;;;;;;9184767;19;20487;-61
2022/02/27 04:18:47;;;;;;;24.52;5.93;;;2.20;77.80;;;;;;9182197;19;20014;-62
2022/02/27 04:21:52;;;;;;;18.95;5.22;;;2.20;77.80;;;;;;9182378;19;20021;-60
2022/02/27 04:25:00;;;;;;;27.80;6.20;;;2.20;77.80;;;;;;9181248;19;20026;-60
2022/02/27 04:28:06;;;;;;;19.98;5.72;;;2.20;77.80;;;;;;9177071;19;20034;-61
2022/02/27 04:31:11;;;;;;;15.95;4.80;;;2.20;77.90;;;;;;9182583;19;20480;-60
2022/02/27 04:34:16;;;;;;;15.38;5.70;;;2.20;77.90;;;;;;9184710;19;20015;-60
2022/02/27 04:37:22;;;;;;;14.13;5.25;;;2.20;77.90;;;;;;9181580;19;20015;-61
2022/02/27 04:40:32;;;;;;;17.27;5.25;;;2.20;77.90;;;;;;9181062;19;20018;-63
2022/02/27 04:43:38;;;;;;;21.05;5.55;;;2.20;77.90;;;;;;9182227;19;20048;-60
2022/02/27 04:46:43;;;;;;;14.18;5.78;;;2.20;77.80;;;;;;9181752;19;20014;-61
2022/02/27 04:49:49;;;;;;;18.55;6.70;;;2.20;77.90;;;;;;9183190;19;20019;-62
2022/02/27 04:52:54;;;;;;;14.88;5.55;;;2.10;77.90;;;;;;9180822;19;20934;-62
2022/02/27 04:56:02;;;;;;;20.48;6.15;;;2.10;77.90;;;;;;9183746;19;20025;-60
2022/02/27 04:59:07;;;;;;;16.23;5.13;;;2.20;77.90;;;;;;9183882;19;20771;-60
2022/02/27 05:02:13;;;;;;;18.85;6.65;;;2.10;77.90;;;;;;9179291;19;20102;-63
2022/02/27 05:05:18;;;;;;;17.92;4.55;;;2.10;77.90;;;;;;9178794;19;20014;-61
2022/02/27 05:08:23;;;;;;;25.15;7.13;;;2.10;77.90;;;;;;9178786;19;20029;-61
2022/02/27 05:11:31;;;;;;;13.35;4.93;;;2.10;77.90;;;;;;9181426;19;20019;-61
2022/02/27 05:14:36;;;;;;;24.75;5.32;;;2.10;78.00;;;;;;9179550;19;20026;-60
2022/02/27 05:18:01;;;;;;;16.00;5.53;;;2.10;78.00;;;;;;9179311;19;20015;-63
2022/02/27 05:21:06;;;;;;;17.83;5.53;;;2.10;78.00;;;;;;9182064;19;20015;-61
2022/02/27 05:24:11;;;;;;;20.05;5.43;;;2.10;78.00;;;;;;9178708;19;20015;-60
2022/02/27 05:27:18;;;;;;;19.70;5.72;;;2.00;78.00;;;;;;9176165;19;20023;-60
2022/02/27 05:30:25;;;;;;;23.35;5.43;;;2.10;78.00;;;;;;9178451;19;20472;-61
2022/02/27 05:33:30;;;;;;;20.42;5.95;;;2.10;78.00;;;;;;9180037;19;20015;-59
2022/02/27 05:36:35;;;;;;;19.55;5.68;;;2.10;78.00;;;;;;9181844;19;20461;-63
2022/02/27 05:39:40;;;;;;;17.30;6.20;;;2.10;78.10;;;;;;9177772;19;20101;-60
2022/02/27 05:42:48;;;;;;;23.10;5.57;;;2.10;78.10;;;;;;9178448;19;20015;-62
2022/02/27 05:45:53;;;;;;;16.27;5.53;;;2.10;78.10;;;;;;9179483;19;20359;-63
2022/02/27 05:48:58;;;;;;;23.85;6.97;;;2.00;78.00;;;;;;9177780;19;20023;-61
2022/02/27 05:52:03;;;;;;;24.60;5.82;;;2.10;78.10;;;;;;9177850;19;20090;-61
2022/02/27 05:55:09;;;;;;;18.80;6.65;;;2.00;78.00;;;;;;9180485;19;20025;-62
2022/02/27 05:58:17;;;;;;;18.42;6.00;;;2.00;78.10;;;;;;9179341;19;20026;-61
2022/02/27 06:01:22;;;;;;;25.67;5.90;;;2.00;78.10;;;;;;9181438;19;20014;-61
2022/02/27 06:04:27;;;;;;;17.55;5.35;;;2.00;78.10;;;;;;9177136;19;20118;-62
2022/02/27 06:07:32;;;;;;;18.88;5.10;;;2.00;78.10;;;;;;9176692;19;20613;-64
2022/02/27 06:10:37;;;;;;;18.92;5.70;;;2.00;78.10;;;;;;9176190;19;20011;-62
2022/02/27 06:13:45;;;;;;;18.38;5.68;;;2.00;78.10;;;;;;9178627;19;20094;-61
2022/02/27 06:16:50;;;;;;;18.40;5.95;;;2.00;78.10;;;;;;9179630;19;20448;-61
2022/02/27 06:19:55;;;;;;;17.48;4.90;;;2.00;78.10;;;;;;9180888;19;20026;-61
2022/02/27 06:23:00;;;;;;;22.27;6.72;;;2.00;78.20;;;;;;9179280;19;20488;-62
2022/02/27 06:26:05;;;;;;;11.90;4.97;;;2.00;78.20;;;;;;9175726;19;20026;-60
2022/02/27 06:29:13;;;;;;;18.52;6.03;;;1.90;78.10;;;;;;9172539;19;20052;-60
2022/02/27 06:32:18;;;;;;;17.33;5.65;;;2.00;78.20;;;;;;9178021;19;20364;-62
2022/02/27 06:35:25;;;;;;;17.27;5.32;;;1.90;78.10;;;;;;9176235;19;20015;-61
2022/02/27 06:38:30;;;;;;;17.85;4.90;;;2.00;78.20;;;;;;9179516;19;20026;-61
2022/02/27 06:41:35;;;;;;;18.10;5.13;;;2.00;78.20;;;;;;9179623;19;20018;-63
2022/02/27 06:44:42;;;;;;;13.90;5.45;;;1.90;78.20;;;;;;9177772;19;20018;-62
2022/02/27 06:47:47;;;;;;;20.55;5.93;;;2.00;78.20;;;;;;9176004;19;20021;-60
2022/02/27 06:50:52;;;;;;;17.90;4.82;;;1.90;78.20;;;;;;9176145;19;20019;-60
2022/02/27 06:53:57;;;;;;;25.52;5.47;;;1.90;78.20;;;;;;9176072;19;20018;-64
2022/02/27 06:57:02;;;;;;;17.42;4.80;;;1.90;78.20;;;;;;9177986;19;20017;-62
2022/02/27 07:00:12;;;;;;;10.70;4.75;;;1.90;78.20;;;;;;9176912;19;20026;-60
2022/02/27 07:03:17;;;;;;;13.88;4.40;;;1.90;78.30;;;;;;9175786;19;20021;-60
2022/02/27 07:06:22;;;;;;;18.25;5.22;;;1.90;78.30;;;;;;9178304;19;20025;-60
2022/02/27 07:09:27;;;;;;;15.60;5.35;;;1.90;78.30;;;;;;9174422;19;20026;-61
2022/02/27 07:12:34;;;;;;;20.88;5.40;;;1.90;78.30;;;;;;9175004;19;20419;-61
2022/02/27 07:15:41;;;;;;;17.48;5.57;;;2.00;78.40;;;;;;9174539;19;20019;-60
2022/02/27 07:18:46;;;;;;;19.33;5.30;;;1.90;78.40;;;;;;9176795;19;20025;-62
2022/02/27 07:21:53;;;;;;;14.77;5.30;;;1.90;78.40;;;;;;9177200;19;20021;-60
2022/02/27 07:24:59;;;;;;;19.80;5.40;;;1.90;78.40;;;;;;9178242;19;20014;-62
2022/02/27 07:28:04;;;;;;;13.52;4.93;;;1.90;78.50;;;;;;9171409;19;20026;-62
2022/02/27 07:31:11;;;;;;;18.10;5.70;;;2.00;78.60;;;;;;9175269;19;20041;-61
2022/02/27 07:34:16;;;;;;;20.58;5.68;;;2.00;78.60;;;;;;9175390;19;20086;-62
2022/02/27 07:37:21;;;;;;;20.27;6.47;;;2.00;78.70;;;;;;9176248;19;21605;-61
2022/02/27 07:40:26;;;;;;;24.02;5.53;;;2.10;78.80;;;;;;9176178;19;20022;-61
2022/02/27 07:43:32;;;;;;;16.65;5.75;;;2.20;78.90;;;;;;9175800;19;20457;-62
2022/02/27 07:46:39;;;;;;;18.55;5.78;;;2.20;79.00;;;;;;9177359;19;20021;-61
2022/02/27 07:49:44;;;;;;;26.85;6.65;;;2.30;79.10;;;;;;9174474;19;20018;-61
2022/02/27 07:52:50;;;;;;;27.40;6.43;;;2.40;79.20;;;;;;9172556;19;20018;-62
2022/02/27 07:55:55;;;;;;;19.10;6.72;;;2.50;79.20;;;;;;9172665;19;20042;-61
2022/02/27 07:59:00;;;;;;;16.35;5.53;;;2.60;79.20;;;;;;9172521;19;20488;-64
2022/02/27 08:02:11;;;;;;;16.20;6.10;;;2.70;79.30;;;;;;9177404;19;20022;-61
2022/02/27 08:05:16;;;;;;;18.40;6.30;;;2.90;79.40;;;;;;9183356;19;20116;-62
2022/02/27 08:08:21;;;;;;;17.85;4.75;;;3.00;79.40;;;;;;9183738;19;20049;-63
2022/02/27 08:11:26;;;;;;;20.60;5.70;;;3.20;79.50;;;;;;9183774;19;20022;-62
2022/02/27 08:14:31;;;;;;;17.98;5.85;;;3.30;79.50;;;;;;9182024;19;20010;-61
2022/02/27 08:17:39;;;;;;;24.73;6.20;;;3.50;79.50;;;;;;9177337;19;20494;-62
2022/02/27 08:20:44;;;;;;;21.00;5.78;;;3.70;79.50;;;;;;9175060;19;20633;-62
2022/02/27 08:23:49;;;;;;;20.67;6.10;;;3.90;79.50;;;;;;9177885;19;20803;-64
2022/02/27 08:26:54;;;;;;;15.73;5.07;;;4.10;79.50;;;;;;9180750;19;22437;-63
2022/02/27 08:29:58;;;;;;;21.02;5.28;;;4.20;79.40;;;;;;9176829;19;20054;-63
2022/02/27 08:33:06;;;;;;;22.23;5.70;;;4.40;79.40;;;;;;9179257;19;20015;-61
2022/02/27 08:36:15;;;;;;;15.15;3.88;;;4.60;79.30;;;;;;9177429;19;20022;-61
2022/02/27 08:39:20;;;;;;;15.75;4.95;;;4.80;79.30;;;;;;9180602;19;20027;-64
2022/02/27 08:42:28;;;;;;;17.15;3.90;;;5.00;79.20;;;;;;9178250;19;20018;-63
2022/02/27 08:45:33;;;;;;;13.38;4.10;;;5.20;79.20;;;;;;9180034;19;20034;-62
2022/02/27 08:48:41;;;;;;;16.35;5.30;;;5.50;79.10;;;;;;9180811;19;20524;-63
2022/02/27 08:51:47;;;;;;;17.02;5.30;;;5.70;79.00;;;;;;9178835;19;20018;-64
2022/02/27 08:54:52;;;;;;;16.38;4.00;;;5.80;79.00;;;;;;9176317;19;20038;-62
2022/02/27 08:57:57;;;;;;;15.10;4.38;;;6.10;78.90;;;;;;9178700;19;20465;-63
2022/02/27 09:01:02;;;;;;;22.25;5.30;;;6.30;78.80;;;;;;9175126;19;20022;-62
2022/02/27 09:04:10;;;;;;;14.18;4.57;;;6.50;78.60;;;;;;9177164;19;20052;-62
2022/02/27 09:07:15;;;;;;;14.70;3.60;;;6.70;78.50;;;;;;9180505;19;20014;-62
2022/02/27 09:10:23;;;;;;;18.75;4.53;;;6.90;78.30;;;;;;9179922;19;20019;-62
2022/02/27 09:13:28;;;;;;;14.00;4.28;;;7.00;78.20;;;;;;9184013;19;20024;-63
2022/02/27 09:16:33;;;;;;;12.85;4.00;;;7.20;78.00;;;;;;9183064;19;20054;-62
2022/02/27 09:19:41;;;;;;;14.95;3.72;;;7.40;77.80;;;;;;9179813;19;20047;-63
2022/02/27 09:22:46;;;;;;;14.60;3.95;;;7.50;77.60;;;;;;9179232;19;20483;-63
2022/02/27 09:25:51;;;;;;;12.77;3.65;;;7.70;77.50;;;;;;9180315;19;20018;-62
2022/02/27 09:29:17;;;;;;;13.50;4.38;;;7.80;77.40;;;;;;9175377;19;20053;-63
2022/02/27 09:32:22;;;;;;;9.13;4.22;;;8.00;77.20;;;;;;9180813;19;20029;-62
2022/02/27 09:35:30;;;;;;;11.57;3.78;;;8.10;77.10;;;;;;9182705;19;20018;-61
2022/02/27 09:38:35;;;;;;;16.08;3.85;;;8.30;77.00;;;;;;9181270;19;20018;-62
2022/02/27 09:41:41;;;;;;;21.00;4.50;;;8.40;76.90;;;;;;9177183;19;20010;-62
2022/02/27 09:44:46;;;;;;;12.15;3.60;;;8.50;76.70;;;;;;9179558;19;20039;-63
2022/02/27 09:47:51;;;;;;;18.05;4.38;;;8.70;76.70;;;;;;9178651;19;20026;-62
2022/02/27 09:50:59;;;;;;;10.68;3.22;;;8.80;76.50;;;;;;9180266;19;20019;-65
2022/02/27 09:54:05;;;;;;;9.02;3.28;;;9.00;76.30;;;;;;9182518;19;20025;-64
2022/02/27 09:57:15;;;;;;;10.82;3.53;;;9.10;76.10;;;;;;9181911;19;20025;-64
2022/02/27 10:00:21;;;;;;;11.48;3.70;;;9.20;75.90;;;;;;9180014;19;20480;-64
2022/02/27 10:03:29;;;;;;;10.18;3.80;;;9.40;75.70;;;;;;9177853;19;20464;-62
2022/02/27 10:06:52;;;;;;;16.55;3.78;;;9.50;75.50;;;;;;9177577;19;20010;-62
2022/02/27 10:10:07;;;;;;;14.73;3.58;;;9.60;75.00;;;;;;9176670;19;20026;-62
2022/02/27 10:13:12;;;;;;;5.82;2.58;;;9.70;74.90;;;;;;9178708;19;20015;-63
2022/02/27 10:16:18;;;;;;;14.18;3.38;;;9.80;74.90;;;;;;9178631;19;20007;-62
2022/02/27 10:19:23;;;;;;;12.23;4.00;;;9.90;74.70;;;;;;9179348;19;20014;-63
2022/02/27 10:22:37;;;;;;;11.68;3.47;;;10.00;74.60;;;;;;9180811;19;20052;-62
2022/02/27 10:25:42;;;;;;;13.88;3.60;;;10.00;74.30;;;;;;9177420;19;20023;-62
2022/02/27 10:29:05;;;;;;;17.90;3.40;;;10.10;74.50;;;;;;9174864;19;20011;-61
2022/02/27 10:32:10;;;;;;;9.65;3.17;;;10.30;74.00;;;;;;9176145;19;20022;-64
2022/02/27 10:35:44;;;;;;;6.50;2.78;;;10.40;74.20;;;;;;9176885;19;20515;-62
2022/02/27 10:38:53;;;;;;;10.05;2.92;;;10.50;73.40;;;;;;9176897;19;20483;-63
2022/02/27 10:42:08;;;;;;;6.93;2.53;;;10.60;73.60;;;;;;9177298;19;20046;-62
2022/02/27 10:45:14;;;;;;;7.88;3.15;;;10.70;73.20;;;;;;9178058;19;20052;-62
2022/02/27 10:48:20;;;;;;;10.98;3.08;;;10.80;73.30;;;;;;9179330;19;20524;-62
2022/02/27 10:51:25;;;;;;;12.23;2.90;;;10.90;73.20;;;;;;9178873;19;20808;-63
2022/02/27 10:54:43;;;;;;;5.03;2.88;;;11.00;73.00;;;;;;9175710;19;20021;-62
2022/02/27 10:57:50;;;;;;;13.85;3.08;;;11.00;72.50;;;;;;9175755;19;20014;-63
2022/02/27 11:00:55;;;;;;;12.90;2.75;;;11.10;72.70;;;;;;9175086;19;20110;-64
2022/02/27 11:04:02;;;;;;;8.50;2.90;;;11.10;72.50;;;;;;9177264;19;20048;-62
2022/02/27 11:07:07;;;;;;;6.88;2.78;;;11.30;72.30;;;;;;9176294;19;20018;-62
2022/02/27 11:10:18;;;;;;;7.20;2.58;;;11.30;72.20;;;;;;9176516;19;20349;-61
2022/02/27 11:13:24;;;;;;;9.80;3.17;;;11.40;71.90;;;;;;9176312;19;20038;-62
2022/02/27 11:16:33;;;;;;;7.22;2.75;;;11.50;71.80;;;;;;9179372;19;20019;-63
2022/02/27 11:19:38;;;;;;;6.40;2.67;;;11.50;71.80;;;;;;9174566;19;20018;-62
2022/02/27 11:22:43;;;;;;;12.52;3.03;;;11.50;71.50;;;;;;9175584;19;20018;-62
2022/02/27 11:25:51;;;;;;;9.10;3.00;;;11.50;71.30;;;;;;9174987;19;20014;-63
2022/02/27 11:28:56;;;;;;;7.93;2.83;;;11.60;71.10;;;;;;9171373;19;20035;-62
2022/02/27 11:32:02;;;;;;;7.72;2.33;;;11.60;71.00;;;;;;9176330;19;20019;-64
2022/02/27 11:35:09;;;;;;;12.38;3.65;;;11.70;71.10;;;;;;9176493;19;20049;-62
2022/02/27 11:38:15;;;;;;;7.28;2.45;;;11.70;70.90;;;;;;9182732;19;20449;-62
2022/02/27 11:41:22;;;;;;;7.80;3.17;;;11.70;70.80;;;;;;9183303;19;20022;-63
2022/02/27 11:44:34;;;;;;;10.55;2.53;;;11.80;70.50;;;;;;9182484;19;20022;-62
2022/02/27 11:47:53;;;;;;;7.63;2.35;;;11.80;70.10;;;;;;9183987;19;20021;-65
2022/02/27 11:50:58;;;;;;;6.68;2.80;;;11.90;69.90;;;;;;9183357;19;20022;-63
2022/02/27 11:54:07;;;;;;;8.73;2.63;;;11.90;70.30;;;;;;9185987;19;20373;-61
2022/02/27 11:57:18;;;;;;;7.55;2.67;;;12.00;69.90;;;;;;9186310;19;20360;-64
2022/02/27 12:00:39;;;;;;;4.50;2.15;;;11.90;69.70;;;;;;9185486;19;20014;-63
2022/02/27 12:03:44;;;;;;;4.22;1.90;;;12.00;69.20;;;;;;9184449;19;20007;-62
2022/02/27 12:07:05;;;;;;;4.35;2.08;;;12.00;69.60;;;;;;9181994;19;20477;-61
2022/02/27 12:10:10;;;;;;;4.53;2.17;;;12.00;69.10;;;;;;9181133;19;20526;-62
2022/02/27 12:13:28;;;;;;;7.97;2.85;;;12.10;69.40;;;;;;9183631;19;20051;-61
2022/02/27 12:16:39;;;;;;;7.03;2.33;;;12.10;68.70;;;;;;9182267;19;20338;-61
2022/02/27 12:19:48;;;;;;;11.60;3.03;;;12.10;68.90;;;;;;9183255;19;20011;-60
2022/02/27 12:22:53;;;;;;;8.73;3.58;;;12.10;68.80;;;;;;9185224;19;20478;-62
2022/02/27 12:26:00;;;;;;;7.68;2.42;;;12.10;68.80;;;;;;9183128;19;20015;-62
2022/02/27 12:29:07;;;;;;;6.57;2.63;;;12.20;68.70;;;;;;9176708;19;20487;-60
2022/02/27 12:32:16;;;;;;;5.38;2.50;;;12.20;68.60;;;;;;9180742;19;20006;-62
2022/02/27 12:35:23;;;;;;;5.80;2.50;;;12.20;68.40;;;;;;9180371;19;20015;-63
2022/02/27 12:38:28;;;;;;;7.93;2.22;;;12.30;68.30;;;;;;9180921;19;20026;-61
2022/02/27 12:41:35;;;;;;;5.32;2.42;;;12.30;68.10;;;;;;9183785;19;20040;-61
2022/02/27 12:44:45;;;;;;;9.82;2.55;;;12.30;68.00;;;;;;9182005;19;20033;-62
2022/02/27 12:47:50;;;;;;;18.60;4.72;;;12.30;67.80;;;;;;9183562;19;20044;-60
2022/02/27 12:50:53;;;;;;;6.63;2.15;;;12.20;67.70;;;;;;9179952;19;20010;-61
2022/02/27 12:54:00;;;;;;;11.52;2.60;;;12.20;67.60;;;;;;9179634;19;20015;-62
2022/02/27 12:57:08;;;;;;;5.53;2.47;;;12.20;67.60;;;;;;9179925;19;20018;-61
2022/02/27 13:00:17;;;;;;;6.68;2.28;;;12.20;67.50;;;;;;9179587;19;20022;-61
2022/02/27 13:03:22;;;;;;;7.30;2.90;;;12.20;67.30;;;;;;9182769;19;20018;-61
2022/02/27 13:06:28;;;;;;;7.93;2.88;;;12.20;67.40;;;;;;9181643;19;20014;-61
2022/02/27 13:09:35;;;;;;;5.65;2.42;;;12.10;67.30;;;;;;9180783;19;20022;-64
2022/02/27 13:12:40;;;;;;;7.97;2.50;;;12.10;67.10;;;;;;9180598;19;20021;-65
2022/02/27 13:15:54;;;;;;;4.72;2.53;;;12.00;67.00;;;;;;9179053;19;20018;-61
2022/02/27 13:19:00;;;;;;;6.72;2.33;;;11.90;66.60;;;;;;9181000;19;20021;-60
2022/02/27 13:22:09;;;;;;;5.95;2.33;;;11.80;66.90;;;;;;9181056;19;20014;-60
2022/02/27 13:25:16;;;;;;;8.77;2.40;;;11.70;66.80;;;;;;9179117;19;20018;-60
2022/02/27 13:28:22;;;;;;;6.70;2.35;;;11.60;66.80;;;;;;9175248;19;20022;-63
2022/02/27 13:31:30;;;;;;;8.43;2.70;;;11.40;66.80;;;;;;9180858;19;20021;-62
2022/02/27 13:34:35;;;;;;;7.00;3.10;;;11.30;66.80;;;;;;9183279;19;20070;-61
2022/02/27 13:37:42;;;;;;;5.93;2.40;;;11.20;67.00;;;;;;9179010;19;20018;-63
2022/02/27 13:40:49;;;;;;;8.75;2.55;;;11.10;67.00;;;;;;9178631;19;20499;-60
2022/02/27 13:43:54;;;;;;;6.28;2.38;;;11.00;67.00;;;;;;9180278;19;20480;-63
2022/02/27 13:47:02;;;;;;;8.70;2.58;;;10.90;67.00;;;;;;9178499;19;20011;-61
2022/02/27 13:50:20;;;;;;;5.05;2.92;;;10.80;67.00;;;;;;9181287;19;20384;-63
2022/02/27 13:53:29;;;;;;;6.32;2.70;;;10.80;66.90;;;;;;9180528;19;20590;-61
2022/02/27 13:56:37;;;;;;;4.53;2.40;;;10.70;67.10;;;;;;9177378;19;20010;-62
2022/02/27 13:59:49;;;;;;;5.68;2.40;;;10.60;67.10;;;;;;9176243;19;20048;-61
2022/02/27 14:02:57;;;;;;;8.00;3.03;;;10.60;67.10;;;;;;9179639;19;20014;-60
2022/02/27 14:06:03;;;;;;;6.38;2.20;;;10.50;67.00;;;;;;9177509;19;20018;-62
2022/02/27 14:09:09;;;;;;;5.57;2.20;;;10.40;67.10;;;;;;9177942;19;20018;-60
2022/02/27 14:12:15;;;;;;;7.85;2.75;;;10.40;67.10;;;;;;9178506;19;20357;-62
2022/02/27 14:15:27;;;;;;;8.98;2.55;;;10.40;67.10;;;;;;9181436;19;20302;-60
2022/02/27 14:18:38;;;;;;;5.07;2.60;;;10.30;66.90;;;;;;9181175;19;20018;-61
2022/02/27 14:21:43;;;;;;;5.97;2.53;;;10.30;66.90;;;;;;9180213;19;20019;-62
2022/02/27 14:24:52;;;;;;;8.48;3.17;;;10.30;67.10;;;;;;9175858;19;20018;-60
2022/02/27 14:28:07;;;;;;;8.55;2.97;;;10.20;67.00;;;;;;9171483;19;20034;-60
2022/02/27 14:31:12;;;;;;;15.23;6.65;;;10.20;66.80;;;;;;9175791;19;20919;-60
2022/02/27 14:34:23;;;;;;;10.13;5.15;;;10.10;67.00;;;;;;9180182;19;20030;-63
2022/02/27 14:37:29;;;;;;;9.75;4.68;;;10.10;66.90;;;;;;9177531;19;20467;-64
2022/02/27 14:40:34;;;;;;;10.85;4.05;;;10.10;67.00;;;;;;9177715;19;20019;-60
2022/02/27 14:43:40;;;;;;;9.10;3.47;;;10.10;67.00;;;;;;9178970;19;20018;-62
2022/02/27 14:46:45;;;;;;;7.90;2.60;;;10.10;67.00;;;;;;9176589;19;20495;-61
2022/02/27 14:49:53;;;;;;;10.10;2.72;;;10.10;67.00;;;;;;9175787;19;20022;-61
2022/02/27 14:52:58;;;;;;;8.35;3.17;;;10.10;66.90;;;;;;9175919;19;20019;-63
2022/02/27 14:56:04;;;;;;;6.65;3.20;;;10.10;67.00;;;;;;9177030;19;20026;-62
2022/02/27 14:59:09;;;;;;;12.45;3.70;;;10.00;66.90;;;;;;9177275;19;20064;-62
2022/02/27 15:02:14;;;;;;;8.98;4.95;;;10.00;66.90;;;;;;9179165;19;20014;-62
2022/02/27 15:05:22;;;;;;;9.13;4.07;;;10.00;66.90;;;;;;9177370;19;20022;-61
2022/02/27 15:08:27;;;;;;;6.60;4.15;;;10.00;66.70;;;;;;9174381;19;20011;-60
2022/02/27 15:11:35;;;;;;;6.32;3.78;;;10.00;66.80;;;;;;9182062;19;20015;-60
2022/02/27 15:14:40;;;;;;;7.38;2.88;;;10.00;66.70;;;;;;9185352;19;20126;-60
2022/02/27 15:17:45;;;;;;;4.82;2.95;;;10.10;66.70;;;;;;9186312;19;20025;-61
2022/02/27 15:20:52;;;;;;;7.43;4.53;;;10.10;66.50;;;;;;9185864;19;20026;-61
2022/02/27 15:23:57;;;;;;;6.55;3.40;;;10.00;66.40;;;;;;9188302;19;20105;-62
2022/02/27 15:27:04;;;;;;;4.75;2.92;;;10.10;66.40;;;;;;9180886;19;20043;-62
2022/02/27 15:30:11;;;;;;;6.25;3.38;;;10.10;66.30;;;;;;9182490;19;20022;-61
2022/02/27 15:33:16;;;;;;;8.95;3.22;;;10.10;66.20;;;;;;9184253;19;20011;-61
2022/02/27 15:36:24;;;;;;;11.27;5.80;;;10.10;66.20;;;;;;9184806;19;20018;-63
2022/02/27 15:39:29;;;;;;;9.98;5.68;;;10.10;65.90;;;;;;9183453;19;20389;-62
2022/02/27 15:42:34;;;;;;;7.43;2.80;;;10.10;65.90;;;;;;9183437;19;20025;-62
2022/02/27 15:45:39;;;;;;;9.07;3.20;;;10.10;65.70;;;;;;9186495;19;20020;-62
2022/02/27 15:48:44;;;;;;;7.97;2.92;;;10.10;65.70;;;;;;9179134;19;20029;-60
2022/02/27 15:51:52;;;;;;;8.00;3.85;;;10.10;65.70;;;;;;9184108;19;20014;-62
2022/02/27 15:54:57;;;;;;;6.85;2.38;;;10.10;65.50;;;;;;9184028;19;20026;-61
2022/02/27 15:58:02;;;;;;;5.13;2.03;;;10.10;65.50;;;;;;9180930;19;20428;-65
2022/02/27 16:01:07;;;;;;;6.63;2.00;;;10.00;65.40;;;;;;9173550;19;20014;-64
2022/02/27 16:04:12;;;;;;;7.80;3.00;;;10.00;65.40;;;;;;9176963;19;20353;-63
2022/02/27 16:07:20;;;;;;;6.70;3.17;;;10.00;65.40;;;;;;9175806;19;20018;-64
2022/02/27 16:10:26;;;;;;;11.18;4.32;;;10.00;65.30;;;;;;9173230;19;20029;-62